• Join FlightAware (Why Join?)
  • Login
  • US Flag 
06:00AM EDT


 

Airport Tracker/Info


-or-


 

Live Flight TrackerFlight Track Log ✈ N108RJ ✈ 12-Jan-2014 ✈ KLWS - KUAO

Flight Track Log - Related Links

Times and Time Zones

All times are in EST time to prevent confusion due to time zone crossing. See the N108RJ flight status page for this flight to view local times or setup timezone preferences in your user account.

Time Position Orientation Groundspeed Altitude Reporting Facility
EST Latitude Longitude Course Direction KTS MPH feet Rate Location/Type
04:04PM 46.3294 -117.0311 253° West 166 191 6,500  Level Seattle Center
04:05PM 46.3233 -117.0856 261° West 150 173 8,500 1,980 Climbing Seattle Center
04:06PM 46.3136 -117.1453 257° West 149 171 10,600 1,860 Climbing Seattle Center
04:07PM 46.2823 -117.5580 256° West  Level Estimated
04:07PM 46.3050 -117.2033 258° West 149 171 12,300  Level Seattle Center
04:08PM 46.2667 -117.6483 256° West  Level Estimated
04:08PM 46.2958 -117.2636 258° West 153 176 14,000  Level Seattle Center
04:09PM 46.2510 -117.7385 256° West  Level Estimated
04:09PM 46.2878 -117.3250 259° West 156 180 15,500  Level Seattle Center
04:10PM 46.2758 -117.3875 255° West 162 186 17,000 1,320 Climbing Seattle Center
04:11PM 46.2667 -117.4528 259° West 166 191 18,200 1,140 Climbing Seattle Center
04:12PM 46.2567 -117.5203 258° West 172 198 19,400 1,140 Climbing Seattle Center
04:13PM 46.2472 -117.5853 258° West 167 192 20,500 1,020 Climbing Seattle Center
04:14PM 46.2367 -117.6500 257° West 167 192 21,500 1,080 Climbing Seattle Center
04:15PM 46.2239 -117.7283 257° West 168 193 22,700 960 Climbing Seattle Center
04:16PM 46.2144 -117.7961 259° West 171 197 23,500 600 Climbing Seattle Center
04:17PM 46.2028 -117.8628 256° West 172 198 24,000 240 Climbing Seattle Center
04:18PM 46.1922 -117.9400 259° West 194 223 24,000  Level Seattle Center
04:19PM 46.1789 -118.0217 257° West 207 238 24,000  Level Seattle Center
04:20PM 46.1656 -118.1053 257° West 212 244 24,000  Level Seattle Center
04:21PM 46.1525 -118.1889 257° West 214 246 24,000  Level Seattle Center
04:22PM 46.1392 -118.2744 257° West 218 251 24,000  Level Seattle Center
04:24PM 46.1247 -118.3586 256° West 217 250 24,000  Level Seattle Center
04:25PM 46.1103 -118.4436 256° West 218 251 24,000  Level Seattle Center
04:26PM 46.0978 -118.5267 258° West 220 253 24,000  Level Seattle Center
04:27PM 46.0842 -118.6128 257° West 221 254 24,000  Level Seattle Center
04:28PM 46.0700 -118.6989 257° West 222 255 24,000  Level Seattle Center
04:29PM 46.0531 -118.8000 256° West 217 250 24,000  Level Seattle Center
04:30PM 46.0383 -118.8861 256° West 220 253 24,000  Level Seattle Center
04:31PM 46.0244 -118.9686 256° West 214 246 24,100  Climbing Seattle Center
04:32PM 46.0103 -119.0547 257° West 220 253 24,000 -60 Descending Seattle Center
04:33PM 45.9964 -119.1389 257° West 218 251 24,000  Level Seattle Center
04:34PM 45.9825 -119.2219 256° West 215 247 24,000  Level Seattle Center
04:35PM 45.9686 -119.3067 257° West 217 250 24,000  Level Seattle Center
04:36PM 45.9542 -119.3906 256° West 217 250 24,000  Level Seattle Center
04:37PM 45.9383 -119.4786 256° West 227 261 24,000  Level Seattle Center
04:38PM 45.9142 -119.5686 249° West 243 280 24,000  Level Seattle Center
04:39PM 45.8808 -119.6603 242° Southwest 258 297 24,000  Level Seattle Center
04:40PM 45.8494 -119.7519 244° Southwest 258 297 24,000  Level Seattle Center
04:41PM 45.8169 -119.8431 243° Southwest 258 297 24,000  Level Seattle Center
04:42PM 45.7786 -119.9550 244° Southwest 261 300 24,000  Level Seattle Center
04:43PM 45.7550 -120.0472 250° West 249 287 24,000  Level Seattle Center
04:44PM 45.7450 -120.1383 261° West 234 269 24,000  Level Seattle Center
04:45PM 45.7325 -120.2311 259° West 237 273 24,100  Climbing Seattle Center
04:46PM 45.7206 -120.3233 260° West 238 274 24,000 -60 Descending Seattle Center
04:47PM 45.7081 -120.4167 259° West 240 276 24,000  Level Seattle Center
04:48PM 45.6964 -120.5061 259° West 232 267 24,000  Level Seattle Center
04:49PM 45.6847 -120.5942 259° West 228 262 24,100  Climbing Seattle Center
04:50PM 45.6736 -120.6847 260° West 232 267 24,000 -60 Descending Seattle Center
04:51PM 45.6600 -120.7786 258° West 242 278 24,000  Level Seattle Center
04:52PM 45.6478 -120.8719 259° West 242 278 24,000  Level Seattle Center
04:53PM 45.6353 -120.9622 259° West 235 270 24,000 -780 Level Seattle Center
04:54PM 45.6206 -121.0742 259° West 244 281 22,500 -1,440 Descending Seattle Center
04:55PM 45.6067 -121.1736 259° West 255 293 21,200 -1,260 Descending Seattle Center
04:56PM 45.5919 -121.2722 258° West 256 295 20,000 -1,320 Descending Seattle Center
04:56PM 45.5856 -121.3331 261° West 257 296 19,200 -1,320 Descending Seattle Center
04:57PM 45.5794 -121.3717 257° West 256 295 18,700 -1,200 Descending Seattle Center
04:57PM 45.5797 -121.3758 275° West 255 293 18,600 -1,140 Descending Seattle Center
04:58PM 45.5650 -121.4686 257° West 253 291 17,600 -1,020 Descending Seattle Center
04:58PM 45.5658 -121.4747 281° West 251 289 17,600 -1,320 Level Seattle Center
04:59PM 45.5503 -121.5689 257° West 249 287 16,300 -1,380 Descending Seattle Center
04:59PM 45.5506 -121.5775 273° West 249 287 16,200 -300 Descending Seattle Center
05:00PM 45.5369 -121.6653 258° West 249 287 16,000 -240 Descending Seattle Center
05:00PM 45.5339 -121.6742 244° Southwest 250 288 16,000 -1,140 Level Seattle Center
05:01PM 45.5306 -121.7703 267° West 248 285 14,900 -1,140 Descending Seattle Center
05:01PM 45.5286 -121.7725 219° Southwest 249 287 14,900 -1,620 Level Seattle Center
05:02PM 45.5250 -121.8664 267° West 244 281 13,300 -1,620 Descending Seattle Center
05:02PM 45.5225 -121.8678 201° Southwest 242 278 13,300 -1,680 Level Seattle Center
05:03PM 45.5203 -121.9586 268° West 235 270 11,600 -1,740 Descending Seattle Center
05:03PM 45.5175 -121.9594 192° South 234 269 11,600 -1,620 Level Seattle Center
05:04PM 45.5153 -122.0464 268° West 223 257 10,000 -1,620 Descending Seattle Center
05:04PM 45.5142 -122.0475 215° Southwest 224 258 10,000 -1,680 Level Seattle Center
05:05PM 45.5094 -122.1308 265° West 216 249 8,300 -1,680 Descending Seattle Center
05:05PM 45.5081 -122.1333 232° Southwest 212 244 8,300 -1,200 Level Seattle Center
05:06PM 45.5044 -122.2108 266° West 205 236 7,100 -1,320 Descending Seattle Center
05:06PM 45.5031 -122.2250 262° West 203 234 6,900 -1,440 Descending Seattle Center
05:07PM 45.4986 -122.3006 265° West 211 243 5,700 -1,320 Descending Seattle Center
05:07PM 45.4969 -122.3014 199° South 208 239 5,700 -1,320 Level Seattle Center
05:08PM 45.4925 -122.3847 266° West 214 246 4,400 -900 Descending Seattle Center
05:09PM 45.4869 -122.4536 263° West 184 212 4,000 -420 Descending Seattle Center
05:09PM 45.4878 -122.4589 283° West 189 217 4,000  Level Seattle Center
05:10PM 45.4819 -122.5317 264° West 187 215 4,000  Level Seattle Center
05:11PM 45.4778 -122.6061 265° West 187 215 4,000  Level Seattle Center
05:12PM 45.4725 -122.6714 263° West 164 189 4,000  Level Seattle Center
05:12PM 45.4711 -122.6758 246° West 156 180 4,000 -120 Level Seattle Center
05:13PM 45.4625 -122.7300 257° West 160 184 3,900 -240 Descending Seattle Center
05:13PM 45.4553 -122.7375 216° Southwest 163 188 3,800 -1,320 Descending Seattle Center
05:14PM 45.4072 -122.7422 184° South 193 222 2,600 -1,200 Descending Seattle Center
05:14PM 45.4031 -122.7464 215° Southwest 197 227 2,600  Level Seattle Center
05:15PM 45.3675 -122.7475 181° South 138 159 2,600 -120 Level Seattle Center
05:15PM 45.3628 -122.7506 204° Southwest 124 143 2,500 -1,200 Descending Seattle Center
05:16PM 45.3319 -122.7547 185° South 132 152 1,400 -600 Descending Seattle Center
05:17PM 45.2994 -122.7656 193° South 132 152 1,400  Level Seattle Center